createdAt,value
2018-09-15T00:01:56.961Z,1020.18
2018-09-15T00:03:24.087Z,1020.19
2018-09-15T00:04:50.531Z,1020.16
2018-09-15T00:06:17.716Z,1020.14
2018-09-15T00:07:45.387Z,1020.14
2018-09-15T00:09:12.509Z,1020.14
2018-09-15T00:10:39.736Z,1020.11
2018-09-15T00:12:07.160Z,1020.09
2018-09-15T00:13:34.703Z,1020.07
2018-09-15T00:15:01.976Z,1020.05
2018-09-15T00:16:28.864Z,1020.02
2018-09-15T00:17:56.181Z,1019.97
2018-09-15T00:19:22.599Z,1019.94
2018-09-15T00:20:49.277Z,1019.92
2018-09-15T00:22:16.476Z,1019.93
2018-09-15T00:23:43.228Z,1019.91
2018-09-15T00:25:09.914Z,1019.92
2018-09-15T00:26:36.585Z,1019.88
2018-09-15T00:28:04.051Z,1019.88
2018-09-15T00:29:31.252Z,1019.87
2018-09-15T00:30:58.750Z,1019.87
2018-09-15T00:32:25.536Z,1019.87
2018-09-15T00:33:53.041Z,1019.86
2018-09-15T00:35:20.523Z,1019.82
2018-09-15T00:36:48.092Z,1019.82
2018-09-15T00:38:15.627Z,1019.81
2018-09-15T00:39:42.997Z,1019.78
2018-09-15T00:41:10.228Z,1019.77
2018-09-15T00:42:37.567Z,1019.77
2018-09-15T00:44:04.975Z,1019.79
2018-09-15T00:45:32.365Z,1019.79
2018-09-15T00:46:59.114Z,1019.78
2018-09-15T00:48:25.855Z,1019.76
2018-09-15T00:49:53.166Z,1019.75
2018-09-15T00:51:20.445Z,1019.76
2018-09-15T00:52:47.819Z,1019.76
2018-09-15T00:54:15.264Z,1019.75
2018-09-15T00:55:42.586Z,1019.73
2018-09-15T00:57:10.050Z,1019.77
2018-09-15T00:58:36.795Z,1019.77
2018-09-15T01:00:04.216Z,1019.75
2018-09-15T01:01:31.153Z,1019.77
2018-09-15T01:02:58.378Z,1019.77
2018-09-15T01:04:25.136Z,1019.76
2018-09-15T01:05:52.505Z,1019.76
2018-09-15T01:07:19.918Z,1019.77
2018-09-15T01:08:47.115Z,1019.78
2018-09-15T01:10:14.446Z,1019.80
2018-09-15T01:11:41.714Z,1019.79
2018-09-15T01:13:08.584Z,1019.79
2018-09-15T01:14:35.503Z,1019.76
2018-09-15T01:16:02.440Z,1019.76
2018-09-15T01:17:29.789Z,1019.75
2018-09-15T01:18:56.826Z,1019.76
2018-09-15T01:20:24.193Z,1019.76
2018-09-15T01:21:51.441Z,1019.76
2018-09-15T01:23:18.323Z,1019.76
2018-09-15T01:24:45.608Z,1019.78
2018-09-15T01:26:15.872Z,1019.77
2018-09-15T01:27:39.554Z,1019.77
2018-09-15T01:29:06.673Z,1019.80
2018-09-15T01:30:34.267Z,1019.80
2018-09-15T01:32:01.406Z,1019.88
2018-09-15T01:33:28.153Z,1019.86
2018-09-15T01:34:55.499Z,1019.84
2018-09-15T01:36:22.974Z,1019.87
2018-09-15T01:37:49.853Z,1019.88
2018-09-15T01:39:17.330Z,1019.85
2018-09-15T01:40:44.641Z,1019.84
2018-09-15T01:42:11.565Z,1019.83
2018-09-15T01:43:38.991Z,1019.82
2018-09-15T01:45:06.229Z,1019.80
2018-09-15T01:46:33.572Z,1019.79
2018-09-15T01:48:00.933Z,1019.77
2018-09-15T01:49:28.351Z,1019.76
2018-09-15T01:50:55.597Z,1019.73
2018-09-15T01:52:22.991Z,1019.72
2018-09-15T01:53:50.393Z,1019.71
2018-09-15T01:55:17.846Z,1019.71
2018-09-15T01:56:45.282Z,1019.71
2018-09-15T01:58:12.593Z,1019.73
2018-09-15T01:59:39.697Z,1019.74
2018-09-15T02:01:06.931Z,1019.74
2018-09-15T02:02:34.139Z,1019.75
2018-09-15T02:04:01.163Z,1019.75
2018-09-15T02:05:28.593Z,1019.70
2018-09-15T02:06:55.892Z,1019.69
2018-09-15T02:08:23.265Z,1019.66
2018-09-15T02:09:50.616Z,1019.69
2018-09-15T02:11:17.887Z,1019.70
2018-09-15T02:12:45.363Z,1019.78
2018-09-15T02:14:12.583Z,1019.77
2018-09-15T02:15:39.413Z,1019.76
2018-09-15T02:17:06.426Z,1019.74
2018-09-15T02:18:33.813Z,1019.73
2018-09-15T02:20:00.562Z,1019.72
2018-09-15T02:21:28.037Z,1019.72
2018-09-15T02:22:55.408Z,1019.70
2018-09-15T02:24:23.705Z,1019.67
2018-09-15T02:25:50.341Z,1019.67
2018-09-15T02:27:17.644Z,1019.65
2018-09-15T02:28:45.136Z,1019.66
2018-09-15T02:30:12.339Z,1019.66
2018-09-15T02:31:39.049Z,1019.62
2018-09-15T02:33:06.446Z,1019.61
2018-09-15T02:34:33.692Z,1019.61
2018-09-15T02:36:01.144Z,1019.61
2018-09-15T02:37:28.053Z,1019.60
2018-09-15T02:38:55.135Z,1019.59
2018-09-15T02:40:22.659Z,1019.63
2018-09-15T02:41:49.933Z,1019.63
2018-09-15T02:43:17.427Z,1019.67
2018-09-15T02:44:44.659Z,1019.69
2018-09-15T02:46:12.202Z,1019.70
2018-09-15T02:47:39.495Z,1019.69
2018-09-15T02:49:06.864Z,1019.70
2018-09-15T02:50:34.140Z,1019.70
2018-09-15T02:52:00.609Z,1019.70
2018-09-15T02:53:27.739Z,1019.68
2018-09-15T02:54:55.267Z,1019.65
2018-09-15T02:56:22.544Z,1019.66
2018-09-15T02:57:49.385Z,1019.67
2018-09-15T02:59:18.168Z,1019.66
2018-09-15T03:00:43.405Z,1019.65
2018-09-15T03:02:10.724Z,1019.66
2018-09-15T03:03:38.093Z,1019.68
2018-09-15T03:05:05.363Z,1019.70
2018-09-15T03:06:32.741Z,1019.70
2018-09-15T03:08:00.172Z,1019.70
2018-09-15T03:09:27.529Z,1019.70
2018-09-15T03:10:54.955Z,1019.73
2018-09-15T03:12:22.017Z,1019.70
2018-09-15T03:13:49.226Z,1019.72
2018-09-15T03:15:15.897Z,1019.73
2018-09-15T03:16:43.147Z,1019.72
2018-09-15T03:18:10.395Z,1019.72
2018-09-15T03:19:37.574Z,1019.75
2018-09-15T03:21:04.571Z,1019.70
2018-09-15T03:22:31.836Z,1019.74
2018-09-15T03:23:59.028Z,1019.73
2018-09-15T03:25:26.316Z,1019.71
2018-09-15T03:26:53.615Z,1019.68
2018-09-15T03:28:21.050Z,1019.70
2018-09-15T03:29:48.491Z,1019.71
2018-09-15T03:31:15.837Z,1019.73
2018-09-15T03:32:43.185Z,1019.75
2018-09-15T03:34:10.637Z,1019.77
2018-09-15T03:35:37.937Z,1019.78
2018-09-15T03:37:05.270Z,1019.77
2018-09-15T03:38:32.660Z,1019.78
2018-09-15T03:40:00.060Z,1019.80
2018-09-15T03:41:27.310Z,1019.81
2018-09-15T03:42:54.558Z,1019.79
2018-09-15T03:44:21.886Z,1019.79
2018-09-15T03:45:49.257Z,1019.81
2018-09-15T03:47:16.098Z,1019.83
2018-09-15T03:48:42.699Z,1019.83
2018-09-15T03:50:10.217Z,1019.81
2018-09-15T03:51:37.418Z,1019.82
2018-09-15T03:53:04.799Z,1019.83
2018-09-15T03:54:31.977Z,1019.88
2018-09-15T03:55:59.340Z,1019.89
2018-09-15T03:57:26.813Z,1019.91
2018-09-15T03:58:54.137Z,1019.93
2018-09-15T04:00:21.443Z,1019.94
2018-09-15T04:01:48.698Z,1019.97
2018-09-15T04:03:16.100Z,1019.98
2018-09-15T04:04:43.389Z,1019.96
2018-09-15T04:06:10.695Z,1019.98
2018-09-15T04:07:37.886Z,1019.99
2018-09-15T04:09:05.241Z,1019.98
2018-09-15T04:10:32.647Z,1019.99
2018-09-15T04:12:00.184Z,1019.98
2018-09-15T04:13:27.625Z,1019.98
2018-09-15T04:14:54.374Z,1019.99
2018-09-15T04:16:21.335Z,1019.95
2018-09-15T04:17:48.838Z,1019.98
2018-09-15T04:19:16.153Z,1019.99
2018-09-15T04:20:43.196Z,1020.02
2018-09-15T04:22:10.415Z,1020.05
2018-09-15T04:23:37.705Z,1020.09
2018-09-15T04:25:04.893Z,1020.10
2018-09-15T04:26:31.803Z,1020.10
2018-09-15T04:27:59.187Z,1020.13
2018-09-15T04:29:26.508Z,1020.15
2018-09-15T04:30:53.768Z,1020.17
2018-09-15T04:32:21.169Z,1020.16
2018-09-15T04:33:48.221Z,1020.16
2018-09-15T04:35:15.074Z,1020.16
2018-09-15T04:36:42.350Z,1020.17
2018-09-15T04:38:09.743Z,1020.16
2018-09-15T04:39:37.079Z,1020.17
2018-09-15T04:41:04.040Z,1020.19
2018-09-15T04:42:31.326Z,1020.18
2018-09-15T04:43:58.427Z,1020.15
2018-09-15T04:45:25.719Z,1020.14
2018-09-15T04:46:53.226Z,1020.14
2018-09-15T04:48:20.285Z,1020.16
2018-09-15T04:49:47.704Z,1020.15
2018-09-15T04:51:15.106Z,1020.17
2018-09-15T04:52:42.643Z,1020.19
2018-09-15T04:54:09.988Z,1020.19
2018-09-15T04:55:37.447Z,1020.21
2018-09-15T04:57:04.908Z,1020.23
2018-09-15T04:58:32.120Z,1020.23
2018-09-15T04:59:59.619Z,1020.25
2018-09-15T05:01:26.417Z,1020.24
2018-09-15T05:02:53.788Z,1020.25
2018-09-15T05:04:21.165Z,1020.25
2018-09-15T05:05:48.740Z,1020.25
2018-09-15T05:07:15.792Z,1020.26
2018-09-15T05:08:43.268Z,1020.27
2018-09-15T05:10:10.553Z,1020.28
2018-09-15T05:11:37.913Z,1020.29
2018-09-15T05:13:05.152Z,1020.28
2018-09-15T05:14:32.523Z,1020.28
2018-09-15T05:15:59.881Z,1020.29
2018-09-15T05:17:27.163Z,1020.26
2018-09-15T05:18:54.533Z,1020.26
2018-09-15T05:20:21.856Z,1020.28
2018-09-15T05:21:49.238Z,1020.27
2018-09-15T05:23:16.821Z,1020.30
2018-09-15T05:24:44.064Z,1020.34
2018-09-15T05:26:11.293Z,1020.37
2018-09-15T05:27:38.447Z,1020.38
2018-09-15T05:29:05.387Z,1020.39
2018-09-15T05:30:32.719Z,1020.43
2018-09-15T05:32:00.159Z,1020.42
2018-09-15T05:33:27.560Z,1020.43
2018-09-15T05:34:54.185Z,1020.39
2018-09-15T05:36:21.542Z,1020.42
2018-09-15T05:37:48.389Z,1020.43
2018-09-15T05:39:15.648Z,1020.49
2018-09-15T05:40:43.085Z,1020.53
2018-09-15T05:42:10.685Z,1020.57
2018-09-15T05:43:37.851Z,1020.62
2018-09-15T05:45:04.743Z,1020.60
2018-09-15T05:46:31.378Z,1020.62
2018-09-15T05:47:58.770Z,1020.61
2018-09-15T05:49:26.219Z,1020.63
2018-09-15T05:50:53.740Z,1020.63
2018-09-15T05:52:20.201Z,1020.63
2018-09-15T05:53:47.689Z,1020.63
2018-09-15T05:55:14.948Z,1020.62
2018-09-15T05:56:42.222Z,1020.64
2018-09-15T05:58:09.573Z,1020.61
2018-09-15T05:59:37.118Z,1020.65
2018-09-15T06:01:04.282Z,1020.65
2018-09-15T06:02:31.593Z,1020.64
2018-09-15T06:03:57.847Z,1020.67
2018-09-15T06:05:25.013Z,1020.69
2018-09-15T06:06:52.405Z,1020.69
2018-09-15T06:08:19.807Z,1020.68
2018-09-15T06:09:46.708Z,1020.68
2018-09-15T06:11:13.983Z,1020.65
2018-09-15T06:12:40.560Z,1020.69
2018-09-15T06:14:07.889Z,1020.73
2018-09-15T06:15:35.260Z,1020.73
2018-09-15T06:17:02.402Z,1020.78
2018-09-15T06:18:29.935Z,1020.79
2018-09-15T06:19:57.002Z,1020.83
2018-09-15T06:21:24.585Z,1020.83
2018-09-15T06:22:51.869Z,1020.84
2018-09-15T06:24:19.239Z,1020.86
2018-09-15T06:25:46.699Z,1020.87
2018-09-15T06:27:13.217Z,1020.89
2018-09-15T06:28:40.545Z,1020.89
2018-09-15T06:30:07.877Z,1020.90
2018-09-15T06:31:35.201Z,1020.89
2018-09-15T06:33:02.460Z,1020.89
2018-09-15T06:34:29.846Z,1020.86
2018-09-15T06:35:57.424Z,1020.84
2018-09-15T06:37:24.922Z,1020.82
2018-09-15T06:38:52.423Z,1020.82
2018-09-15T06:40:19.538Z,1020.84
2018-09-15T06:41:46.741Z,1020.84
2018-09-15T06:43:14.175Z,1020.86
2018-09-15T06:44:41.521Z,1020.88
2018-09-15T06:46:08.849Z,1020.88
2018-09-15T06:47:36.301Z,1020.87
2018-09-15T06:49:03.295Z,1020.86
2018-09-15T06:50:30.030Z,1020.86
2018-09-15T06:51:57.544Z,1020.84
2018-09-15T06:53:24.764Z,1020.83
2018-09-15T06:54:52.260Z,1020.84
2018-09-15T06:56:19.834Z,1020.85
2018-09-15T06:57:47.160Z,1020.88
2018-09-15T06:59:13.835Z,1020.89
2018-09-15T07:00:41.122Z,1020.93
2018-09-15T07:02:11.226Z,1020.93
2018-09-15T07:03:34.599Z,1020.90
2018-09-15T07:05:01.903Z,1020.88
2018-09-15T07:06:29.444Z,1020.89
2018-09-15T07:07:56.829Z,1020.91
2018-09-15T07:09:24.362Z,1020.87
2018-09-15T07:10:52.025Z,1020.88
2018-09-15T07:12:19.349Z,1020.88
2018-09-15T07:13:46.069Z,1020.91
2018-09-15T07:15:13.385Z,1020.92
2018-09-15T07:16:40.732Z,1020.96
2018-09-15T07:18:08.133Z,1020.99
2018-09-15T07:19:35.598Z,1021.02
2018-09-15T07:21:02.240Z,1021.03
2018-09-15T07:22:29.815Z,1021.08
2018-09-15T07:23:56.159Z,1021.12
2018-09-15T07:25:23.625Z,1021.17
2018-09-15T07:26:50.246Z,1021.16
2018-09-15T07:28:17.584Z,1021.17
2018-09-15T07:29:44.881Z,1021.20
2018-09-15T07:31:12.388Z,1021.22
2018-09-15T07:32:39.791Z,1021.20
2018-09-15T07:34:07.214Z,1021.24
2018-09-15T07:35:34.755Z,1021.20
2018-09-15T07:37:01.922Z,1021.21
2018-09-15T07:38:29.468Z,1021.24
2018-09-15T07:39:56.873Z,1021.28
2018-09-15T07:41:23.908Z,1021.32
2018-09-15T07:42:50.628Z,1021.29
2018-09-15T07:44:18.102Z,1021.32
2018-09-15T07:45:45.629Z,1021.30
2018-09-15T07:47:13.062Z,1021.33
2018-09-15T07:48:40.684Z,1021.32
2018-09-15T07:50:08.183Z,1021.33
2018-09-15T07:51:35.302Z,1021.34
2018-09-15T07:53:02.009Z,1021.35
2018-09-15T07:54:29.251Z,1021.38
2018-09-15T07:55:56.748Z,1021.40
2018-09-15T07:57:23.638Z,1021.41
2018-09-15T07:58:50.977Z,1021.42
2018-09-15T08:00:18.427Z,1021.42
2018-09-15T08:01:46.097Z,1021.42
2018-09-15T08:03:13.326Z,1021.44
2018-09-15T08:04:39.978Z,1021.44
2018-09-15T08:06:07.218Z,1021.46
2018-09-15T08:07:33.426Z,1021.48
2018-09-15T08:09:00.998Z,1021.54
2018-09-15T08:10:28.305Z,1021.55
2018-09-15T08:11:55.780Z,1021.59
2018-09-15T08:13:23.278Z,1021.59
2018-09-15T08:14:50.853Z,1021.63
2018-09-15T08:16:18.279Z,1021.64
2018-09-15T08:17:45.512Z,1021.64
2018-09-15T08:19:12.942Z,1021.61
2018-09-15T08:20:40.266Z,1021.63
2018-09-15T08:22:07.123Z,1021.62
2018-09-15T08:23:34.585Z,1021.59
2018-09-15T08:25:01.792Z,1021.57
2018-09-15T08:26:36.517Z,1021.53
2018-09-15T08:27:55.798Z,1021.50
2018-09-15T08:29:23.124Z,1021.56
2018-09-15T08:30:50.626Z,1021.62
2018-09-15T08:32:18.404Z,1021.64
2018-09-15T08:33:45.696Z,1021.64
2018-09-15T08:35:13.375Z,1021.66
2018-09-15T08:36:40.762Z,1021.66
2018-09-15T08:38:08.141Z,1021.65
2018-09-15T08:39:35.568Z,1021.65
2018-09-15T08:41:02.561Z,1021.65
2018-09-15T08:42:29.373Z,1021.66
2018-09-15T08:43:56.706Z,1021.65
2018-09-15T08:45:23.163Z,1021.63
2018-09-15T08:46:50.615Z,1021.67
2018-09-15T08:48:17.871Z,1021.69
2018-09-15T08:49:45.491Z,1021.69
2018-09-15T08:51:12.934Z,1021.71
2018-09-15T08:52:40.059Z,1021.72
2018-09-15T08:54:07.507Z,1021.72
2018-09-15T08:55:34.500Z,1021.72
2018-09-15T08:57:01.796Z,1021.74
2018-09-15T08:58:28.241Z,1021.76
2018-09-15T08:59:55.365Z,1021.76
2018-09-15T09:01:22.556Z,1021.78
2018-09-15T09:02:50.036Z,1021.78
2018-09-15T09:04:17.293Z,1021.81
2018-09-15T09:05:44.747Z,1021.82
2018-09-15T09:07:11.844Z,1021.84
2018-09-15T09:08:39.049Z,1021.82
2018-09-15T09:10:06.575Z,1021.83
2018-09-15T09:11:33.868Z,1021.84
2018-09-15T09:13:01.230Z,1021.87
2018-09-15T09:14:27.621Z,1021.91
2018-09-15T09:15:54.408Z,1021.81
2018-09-15T09:17:21.824Z,1021.77
2018-09-15T09:18:49.281Z,1021.80
2018-09-15T09:20:16.544Z,1021.79
2018-09-15T09:21:44.149Z,1021.77
2018-09-15T09:23:11.472Z,1021.80
2018-09-15T09:24:38.888Z,1021.85
2018-09-15T09:26:05.811Z,1021.85
2018-09-15T09:27:32.748Z,1021.85
2018-09-15T09:29:00.285Z,1021.83
2018-09-15T09:30:27.772Z,1021.81
2018-09-15T09:31:55.153Z,1021.84
2018-09-15T09:33:22.483Z,1021.84
2018-09-15T09:34:49.992Z,1021.84
2018-09-15T09:36:17.389Z,1021.88
2018-09-15T09:37:44.873Z,1021.86
2018-09-15T09:39:12.185Z,1021.87
2018-09-15T09:40:38.704Z,1021.89
2018-09-15T09:42:06.329Z,1021.93
2018-09-15T09:43:33.683Z,1021.99
2018-09-15T09:45:01.158Z,1022.02
2018-09-15T09:46:28.728Z,1022.01
2018-09-15T09:47:56.181Z,1022.00
2018-09-15T09:49:22.982Z,1022.02
2018-09-15T09:50:50.327Z,1022.05
2018-09-15T09:52:17.811Z,1022.08
2018-09-15T09:53:45.140Z,1022.11
2018-09-15T09:55:12.600Z,1022.13
2018-09-15T09:56:39.809Z,1022.17
2018-09-15T09:58:07.176Z,1022.22
2018-09-15T09:59:34.016Z,1022.17
2018-09-15T10:01:01.286Z,1022.15
2018-09-15T10:02:28.918Z,1022.19
2018-09-15T10:03:55.682Z,1022.18
2018-09-15T10:05:23.225Z,1022.17
2018-09-15T10:06:49.874Z,1022.13
2018-09-15T10:08:16.465Z,1022.14
2018-09-15T10:09:43.990Z,1022.18
2018-09-15T10:11:11.284Z,1022.24
2018-09-15T10:12:38.619Z,1022.24
2018-09-15T10:14:06.074Z,1022.23
2018-09-15T10:15:33.404Z,1022.19
2018-09-15T10:16:59.909Z,1022.15
2018-09-15T10:18:27.313Z,1022.14
2018-09-15T10:19:54.108Z,1022.16
2018-09-15T10:21:20.623Z,1022.20
2018-09-15T10:22:47.473Z,1022.20
2018-09-15T10:24:15.129Z,1022.20
2018-09-15T10:25:42.457Z,1022.18
2018-09-15T10:27:09.832Z,1022.21
2018-09-15T10:28:36.876Z,1022.18
2018-09-15T10:30:04.291Z,1022.13
2018-09-15T10:31:30.939Z,1022.16
2018-09-15T10:32:58.234Z,1022.15
2018-09-15T10:34:25.799Z,1022.15
2018-09-15T10:35:53.370Z,1022.24
2018-09-15T10:37:20.184Z,1022.22
2018-09-15T10:38:48.023Z,1022.23
2018-09-15T10:40:15.151Z,1022.27
2018-09-15T10:41:42.439Z,1022.23
2018-09-15T10:43:09.191Z,1022.20
2018-09-15T10:44:36.150Z,1022.19
2018-09-15T10:46:03.712Z,1022.26
2018-09-15T10:47:30.939Z,1022.25
2018-09-15T10:48:58.263Z,1022.24
2018-09-15T10:50:25.606Z,1022.19
2018-09-15T10:51:53.011Z,1022.17
2018-09-15T10:53:20.722Z,1022.14
2018-09-15T10:54:48.162Z,1022.14
2018-09-15T10:56:15.203Z,1022.10
2018-09-15T10:57:42.573Z,1022.14
2018-09-15T10:59:09.689Z,1022.14
2018-09-15T11:00:36.890Z,1022.12
2018-09-15T11:02:04.033Z,1022.12
2018-09-15T11:03:30.582Z,1022.10
2018-09-15T11:04:56.975Z,1022.11
2018-09-15T11:06:24.545Z,1022.09
2018-09-15T11:07:51.988Z,1022.05
2018-09-15T11:09:19.547Z,1022.05
2018-09-15T11:10:47.072Z,1022.04
2018-09-15T11:12:13.840Z,1022.07
2018-09-15T11:13:40.924Z,1022.09
2018-09-15T11:15:07.376Z,1022.14
2018-09-15T11:16:34.817Z,1022.17
2018-09-15T11:18:02.331Z,1022.17
2018-09-15T11:19:29.649Z,1022.15
2018-09-15T11:20:56.220Z,1022.17
2018-09-15T11:22:23.916Z,1022.19
2018-09-15T11:23:51.139Z,1022.21
2018-09-15T11:25:18.617Z,1022.21
2018-09-15T11:26:46.076Z,1022.29
2018-09-15T11:28:13.554Z,1022.32
2018-09-15T11:29:40.000Z,1022.30
2018-09-15T11:31:07.438Z,1022.32
2018-09-15T11:32:34.574Z,1022.30
2018-09-15T11:34:02.033Z,1022.31
2018-09-15T11:35:29.453Z,1022.34
2018-09-15T11:36:56.733Z,1022.38
2018-09-15T11:38:24.300Z,1022.38
2018-09-15T11:39:51.823Z,1022.39
2018-09-15T11:41:19.229Z,1022.37
2018-09-15T11:42:46.612Z,1022.35
2018-09-15T11:44:13.536Z,1022.37
2018-09-15T11:45:41.166Z,1022.37
2018-09-15T11:47:08.533Z,1022.41
2018-09-15T11:48:35.895Z,1022.42
2018-09-15T11:50:03.462Z,1022.44
2018-09-15T11:51:31.012Z,1022.42
2018-09-15T11:52:58.379Z,1022.40
2018-09-15T11:54:25.729Z,1022.37
2018-09-15T11:55:53.219Z,1022.40
2018-09-15T11:57:20.776Z,1022.45
2018-09-15T11:58:48.142Z,1022.48
2018-09-15T12:00:14.430Z,1022.47
2018-09-15T12:01:41.917Z,1022.50
2018-09-15T12:03:09.471Z,1022.47
2018-09-15T12:04:36.312Z,1022.53
2018-09-15T12:06:03.818Z,1022.54
2018-09-15T12:07:31.225Z,1022.58
2018-09-15T12:08:58.641Z,1022.59
2018-09-15T12:10:25.925Z,1022.64
2018-09-15T12:11:53.525Z,1022.64
2018-09-15T12:13:20.860Z,1022.67
2018-09-15T12:14:48.410Z,1022.69
2018-09-15T12:16:15.635Z,1022.67
2018-09-15T12:17:41.695Z,1022.69
2018-09-15T12:19:09.111Z,1022.70
2018-09-15T12:20:36.461Z,1022.74
2018-09-15T12:22:03.498Z,1022.77
2018-09-15T12:23:31.049Z,1022.75
2018-09-15T12:24:58.023Z,1022.75
2018-09-15T12:26:24.701Z,1022.71
2018-09-15T12:27:52.277Z,1022.74
2018-09-15T12:29:18.983Z,1022.78
2018-09-15T12:30:46.297Z,1022.83
2018-09-15T12:32:13.683Z,1022.82
2018-09-15T12:33:41.286Z,1022.81
2018-09-15T12:35:08.658Z,1022.82
2018-09-15T12:36:36.124Z,1022.83
2018-09-15T12:38:03.543Z,1022.88
2018-09-15T12:39:30.360Z,1022.86
2018-09-15T12:40:57.738Z,1022.88
2018-09-15T12:42:25.063Z,1022.92
2018-09-15T12:43:52.655Z,1022.92
2018-09-15T12:45:19.519Z,1022.94
2018-09-15T12:46:46.857Z,1022.99
2018-09-15T12:48:14.201Z,1022.98
2018-09-15T12:49:41.665Z,1022.97
2018-09-15T12:51:08.910Z,1022.97
2018-09-15T12:52:36.263Z,1022.98
2018-09-15T12:54:03.295Z,1022.99
2018-09-15T12:55:30.777Z,1023.01
2018-09-15T12:56:57.764Z,1022.99
2018-09-15T12:58:25.034Z,1023.02
2018-09-15T12:59:52.627Z,1023.02
2018-09-15T13:01:19.925Z,1023.02
2018-09-15T13:02:47.394Z,1023.01
2018-09-15T13:04:14.760Z,1023.05
2018-09-15T13:05:42.166Z,1023.07
2018-09-15T13:07:09.801Z,1023.06
2018-09-15T13:08:37.284Z,1023.10
2018-09-15T13:10:04.094Z,1023.11
2018-09-15T13:11:30.737Z,1023.11
2018-09-15T13:12:58.105Z,1023.11
2018-09-15T13:14:24.624Z,1023.11
2018-09-15T13:15:51.993Z,1023.13
2018-09-15T13:17:19.234Z,1023.11
2018-09-15T13:18:46.586Z,1023.14
2018-09-15T13:20:13.771Z,1023.14
2018-09-15T13:21:41.062Z,1023.12
2018-09-15T13:23:08.492Z,1023.13
2018-09-15T13:24:35.576Z,1023.13
2018-09-15T13:26:02.646Z,1023.11
2018-09-15T13:27:29.162Z,1023.13
2018-09-15T13:28:55.896Z,1023.11
2018-09-15T13:30:22.233Z,1023.13
2018-09-15T13:31:49.504Z,1023.12
2018-09-15T13:33:16.969Z,1023.12
2018-09-15T13:34:44.338Z,1023.12
2018-09-15T13:36:11.623Z,1023.13
2018-09-15T13:37:38.202Z,1023.12
2018-09-15T13:39:05.565Z,1023.14
2018-09-15T13:40:32.268Z,1023.18
2018-09-15T13:41:59.707Z,1023.21
2018-09-15T13:43:27.357Z,1023.22
2018-09-15T13:44:54.610Z,1023.23
2018-09-15T13:46:21.292Z,1023.22
2018-09-15T13:47:48.563Z,1023.24
2018-09-15T13:49:15.896Z,1023.26
2018-09-15T13:50:43.380Z,1023.29
2018-09-15T13:52:10.888Z,1023.29
2018-09-15T13:53:37.675Z,1023.26
2018-09-15T13:55:04.392Z,1023.27
2018-09-15T13:56:31.567Z,1023.25
2018-09-15T13:57:59.187Z,1023.26
2018-09-15T13:59:25.841Z,1023.27
2018-09-15T14:00:53.308Z,1023.28
2018-09-15T14:02:20.518Z,1023.31
2018-09-15T14:03:47.951Z,1023.34
2018-09-15T14:05:15.125Z,1023.33
2018-09-15T14:06:42.322Z,1023.34
2018-09-15T14:08:09.273Z,1023.34
2018-09-15T14:09:43.473Z,1023.37
2018-09-15T14:11:04.130Z,1023.41
2018-09-15T14:12:31.499Z,1023.42
2018-09-15T14:13:58.806Z,1023.41
2018-09-15T14:15:26.162Z,1023.42
2018-09-15T14:16:53.930Z,1023.39
2018-09-15T14:18:21.170Z,1023.36
2018-09-15T14:19:48.256Z,1023.31
2018-09-15T14:21:15.713Z,1023.32
2018-09-15T14:22:42.986Z,1023.28
2018-09-15T14:24:10.359Z,1023.19
2018-09-15T14:25:37.807Z,1023.16
2018-09-15T14:27:04.998Z,1023.14
2018-09-15T14:28:32.567Z,1023.14
2018-09-15T14:29:59.791Z,1023.20
2018-09-15T14:31:27.368Z,1023.24
2018-09-15T14:32:54.767Z,1023.25
2018-09-15T14:34:22.231Z,1023.23
2018-09-15T14:35:49.509Z,1023.22
2018-09-15T14:37:16.938Z,1023.26
2018-09-15T14:38:43.661Z,1023.32
2018-09-15T14:40:10.998Z,1023.33
2018-09-15T14:41:38.225Z,1023.31
2018-09-15T14:43:05.269Z,1023.33
2018-09-15T14:44:32.427Z,1023.39
2018-09-15T14:45:59.855Z,1023.43
2018-09-15T14:47:27.437Z,1023.48
2018-09-15T14:48:53.851Z,1023.47
2018-09-15T14:50:21.141Z,1023.48
2018-09-15T14:51:48.583Z,1023.51
2018-09-15T14:53:15.997Z,1023.50
2018-09-15T14:54:43.498Z,1023.51
2018-09-15T14:56:11.007Z,1023.57
2018-09-15T14:57:38.268Z,1023.59
2018-09-15T14:59:05.589Z,1023.58
2018-09-15T15:00:33.039Z,1023.60
2018-09-15T15:02:00.413Z,1023.62
2018-09-15T15:03:27.719Z,1023.63
2018-09-15T15:04:55.157Z,1023.68
2018-09-15T15:06:22.695Z,1023.70
2018-09-15T15:07:50.235Z,1023.67
2018-09-15T15:09:16.860Z,1023.68
2018-09-15T15:10:43.444Z,1023.68
2018-09-15T15:12:09.571Z,1023.66
2018-09-15T15:13:37.011Z,1023.64
2018-09-15T15:15:04.477Z,1023.60
2018-09-15T15:16:31.830Z,1023.61
2018-09-15T15:17:59.161Z,1023.61
2018-09-15T15:19:26.601Z,1023.63
2018-09-15T15:20:53.897Z,1023.69
2018-09-15T15:22:21.320Z,1023.74
2018-09-15T15:23:47.754Z,1023.75
2018-09-15T15:25:13.815Z,1023.74
2018-09-15T15:26:40.035Z,1023.72
2018-09-15T15:28:07.098Z,1023.72
2018-09-15T15:29:34.474Z,1023.72
2018-09-15T15:31:01.656Z,1023.74
2018-09-15T15:32:29.152Z,1023.75
2018-09-15T15:33:56.491Z,1023.76
2018-09-15T15:35:23.512Z,1023.77
2018-09-15T15:36:51.982Z,1023.75
2018-09-15T15:38:18.227Z,1023.73
2018-09-15T15:39:44.566Z,1023.74
2018-09-15T15:41:10.844Z,1023.73
2018-09-15T15:42:37.245Z,1023.79
2018-09-15T15:44:04.656Z,1023.81
2018-09-15T15:45:33.078Z,1023.80
2018-09-15T15:46:58.294Z,1023.81
2018-09-15T15:48:25.455Z,1023.84
2018-09-15T15:49:51.797Z,1023.85
2018-09-15T15:51:18.094Z,1023.88
2018-09-15T15:52:44.338Z,1023.89
2018-09-15T15:54:11.786Z,1023.91
2018-09-15T15:55:39.295Z,1023.91
2018-09-15T15:57:06.654Z,1023.91
2018-09-15T15:58:34.140Z,1023.88
2018-09-15T16:00:00.494Z,1023.89
2018-09-15T16:01:27.876Z,1023.93
2018-09-15T16:02:54.986Z,1023.95
2018-09-15T16:04:24.579Z,1023.94
2018-09-15T16:05:48.240Z,1023.95
2018-09-15T16:07:15.373Z,1023.92
2018-09-15T16:08:42.720Z,1023.92
2018-09-15T16:10:09.155Z,1023.92
2018-09-15T16:11:36.630Z,1023.96
2018-09-15T16:13:03.398Z,1024.00
2018-09-15T16:14:30.782Z,1024.01
2018-09-15T16:15:58.142Z,1024.03
2018-09-15T16:17:25.609Z,1024.05
2018-09-15T16:18:51.841Z,1024.06
2018-09-15T16:20:19.372Z,1024.07
2018-09-15T16:21:45.664Z,1024.12
2018-09-15T16:23:13.097Z,1024.16
2018-09-15T16:24:40.500Z,1024.19
2018-09-15T16:26:07.760Z,1024.20
2018-09-15T16:27:34.329Z,1024.18
2018-09-15T16:29:01.883Z,1024.21
2018-09-15T16:30:29.429Z,1024.23
2018-09-15T16:31:55.368Z,1024.24
2018-09-15T16:33:22.968Z,1024.27
2018-09-15T16:34:50.308Z,1024.26
2018-09-15T16:36:17.658Z,1024.28
2018-09-15T16:37:45.022Z,1024.26
2018-09-15T16:39:11.451Z,1024.26
2018-09-15T16:40:38.793Z,1024.28
2018-09-15T16:42:17.376Z,1024.29
2018-09-15T16:43:31.692Z,1024.33
2018-09-15T16:44:58.957Z,1024.34
2018-09-15T16:46:26.620Z,1024.34
2018-09-15T16:47:53.854Z,1024.34
2018-09-15T16:49:21.357Z,1024.37
2018-09-15T16:50:48.516Z,1024.39
2018-09-15T16:52:16.210Z,1024.41
2018-09-15T16:53:42.088Z,1024.42
2018-09-15T16:55:09.398Z,1024.43
2018-09-15T16:56:36.776Z,1024.46
2018-09-15T16:58:03.389Z,1024.46
2018-09-15T16:59:30.855Z,1024.42
2018-09-15T17:00:58.124Z,1024.40
2018-09-15T17:02:24.418Z,1024.42
2018-09-15T17:03:51.780Z,1024.43
2018-09-15T17:05:19.223Z,1024.44
2018-09-15T17:06:46.610Z,1024.45
2018-09-15T17:08:12.969Z,1024.43
2018-09-15T17:09:40.370Z,1024.42
2018-09-15T17:11:07.738Z,1024.42
2018-09-15T17:12:35.225Z,1024.43
2018-09-15T17:14:01.386Z,1024.45
2018-09-15T17:15:28.965Z,1024.45
2018-09-15T17:16:56.322Z,1024.47
2018-09-15T17:18:23.725Z,1024.51
2018-09-15T17:19:50.053Z,1024.53
2018-09-15T17:21:17.322Z,1024.57
2018-09-15T17:22:44.843Z,1024.59
2018-09-15T17:24:12.240Z,1024.64
2018-09-15T17:25:38.187Z,1024.68
2018-09-15T17:27:05.835Z,1024.68
2018-09-15T17:28:32.441Z,1024.73
2018-09-15T17:29:58.362Z,1024.75
2018-09-15T17:31:25.640Z,1024.80
2018-09-15T17:32:53.154Z,1024.82
2018-09-15T17:34:20.649Z,1024.78
2018-09-15T17:35:47.908Z,1024.72